Аэропорт: Казань. Казань

ICAO: UWKD

METAR:
2021-04-21 21:00:00
UWKD 212100Z 16007G12MPS 9999 OVC008 03/01 Q1020 R11/290050 NOSIG RMK QFE755/1007
METAR:
2021-04-21 20:00:00
TAF UWKD 212000Z 2121/2221 15006G12MPS 9999 BKN011 TX11/2212Z TN03/2121Z TEMPO 2121/2203 2000 RA BR OVC005 BECMG 2200/2202 18006G12MPS TEMPO 2212/2218 5000 -SHRA BKN010CB